createdAt,value
2023-01-01T00:00:07.469Z,100738.03
2023-01-01T00:00:41.637Z,100733.81
2023-01-01T00:01:16.746Z,100742.41
2023-01-01T00:01:48.678Z,100735.75
2023-01-01T00:02:20.585Z,100736.69
2023-01-01T00:02:52.526Z,100735.44
2023-01-01T00:03:24.407Z,100735.75
2023-01-01T00:03:59.185Z,100736.69
2023-01-01T00:04:31.981Z,100741.22
2023-01-01T00:05:04.981Z,100738.87
2023-01-01T00:05:40.092Z,100739.06
2023-01-01T00:06:13.895Z,100739.06
2023-01-01T00:06:46.240Z,100737.44
2023-01-01T00:07:18.184Z,100741.59
2023-01-01T00:07:50.013Z,100739.72
2023-01-01T00:08:21.871Z,100739.44
2023-01-01T00:09:13.654Z,100742.97
2023-01-01T00:10:04.499Z,100736.97
2023-01-01T00:10:37.642Z,100735.87
2023-01-01T00:11:10.505Z,100742.34
2023-01-01T00:11:42.330Z,100740.66
2023-01-01T00:12:14.520Z,100730.44
2023-01-01T00:12:46.363Z,100726.38
2023-01-01T00:13:18.225Z,100728.06
2023-01-01T00:13:50.078Z,100734.09
2023-01-01T00:14:22.453Z,100726.09
2023-01-01T00:14:54.331Z,100726.72
2023-01-01T00:15:27.629Z,100726.09
2023-01-01T00:16:07.007Z,100724.69
2023-01-01T00:16:39.195Z,100724.63
2023-01-01T00:17:11.397Z,100731.72
2023-01-01T00:17:43.555Z,100731.84
2023-01-01T00:18:15.472Z,100734.53
2023-01-01T00:18:47.308Z,100732.47
2023-01-01T00:19:19.131Z,100737.34
2023-01-01T00:19:51.093Z,100732.84
2023-01-01T00:20:23.107Z,100733.81
2023-01-01T00:21:04.362Z,100742.00
2023-01-01T00:21:36.266Z,100733.88
2023-01-01T00:22:43.617Z,100733.88
2023-01-01T00:23:00.348Z,100731.13
2023-01-01T00:23:33.626Z,100738.66
2023-01-01T00:24:06.862Z,100734.69
2023-01-01T00:24:38.803Z,100734.16
2023-01-01T00:25:14.046Z,100734.72
2023-01-01T00:25:45.882Z,100741.78
2023-01-01T00:26:18.424Z,100736.03
2023-01-01T00:26:50.304Z,100739.84
2023-01-01T00:27:22.158Z,100735.63
2023-01-01T00:27:54.226Z,100739.56
2023-01-01T00:28:26.784Z,100737.09
2023-01-01T00:28:58.711Z,100748.81
2023-01-01T00:29:31.582Z,100740.31
2023-01-01T00:30:04.350Z,100742.22
2023-01-01T00:30:39.707Z,100745.13
2023-01-01T00:31:14.660Z,100742.00
2023-01-01T00:31:46.908Z,100744.16
2023-01-01T00:32:22.682Z,100744.00
2023-01-01T00:32:56.325Z,100738.63
2023-01-01T00:33:28.713Z,100740.38
2023-01-01T00:34:00.596Z,100745.19
2023-01-01T00:34:32.484Z,100741.97
2023-01-01T00:35:05.018Z,100737.91
2023-01-01T00:35:36.841Z,100741.59
2023-01-01T00:36:13.855Z,100735.75
2023-01-01T00:36:45.822Z,100737.94
2023-01-01T00:37:18.353Z,100749.16
2023-01-01T00:37:50.386Z,100738.66
2023-01-01T00:38:22.246Z,100742.56
2023-01-01T00:38:55.569Z,100738.81
2023-01-01T00:39:28.165Z,100742.34
2023-01-01T00:40:00.035Z,100742.75
2023-01-01T00:40:31.925Z,100738.13
2023-01-01T00:41:04.024Z,100743.28
2023-01-01T00:41:35.870Z,100745.37
2023-01-01T00:42:07.701Z,100743.72
2023-01-01T00:42:41.672Z,100739.28
2023-01-01T00:43:13.573Z,100733.44
2023-01-01T00:43:45.683Z,100743.88
2023-01-01T00:44:17.849Z,100735.34
2023-01-01T00:44:49.732Z,100730.28
2023-01-01T00:45:22.761Z,100730.69
2023-01-01T00:45:54.960Z,100733.16
2023-01-01T00:46:26.974Z,100735.53
2023-01-01T00:46:58.869Z,100739.31
2023-01-01T00:47:30.701Z,100731.13
2023-01-01T00:48:02.554Z,100732.78
2023-01-01T00:48:34.974Z,100730.06
2023-01-01T00:49:06.831Z,100733.69
2023-01-01T00:49:39.056Z,100733.28
2023-01-01T00:50:10.879Z,100733.38
2023-01-01T00:50:42.952Z,100734.72
2023-01-01T00:51:14.882Z,100737.69
2023-01-01T00:51:46.736Z,100733.50
2023-01-01T00:52:18.662Z,100731.72
2023-01-01T00:52:50.668Z,100739.31
2023-01-01T00:53:22.618Z,100739.59
2023-01-01T00:53:54.447Z,100744.22
2023-01-01T00:54:26.332Z,100743.13
2023-01-01T00:54:58.441Z,100751.38
2023-01-01T00:55:30.285Z,100744.34
2023-01-01T00:56:02.368Z,100744.50
2023-01-01T00:56:35.414Z,100746.56
2023-01-01T00:57:07.343Z,100745.97
2023-01-01T00:57:39.289Z,100741.47
2023-01-01T00:58:11.600Z,100747.25
2023-01-01T00:58:44.831Z,100746.19
2023-01-01T00:59:32.891Z,100747.03
2023-01-01T01:00:06.529Z,100747.31
2023-01-01T01:00:38.623Z,100738.72
2023-01-01T01:01:10.659Z,100744.91
2023-01-01T01:01:42.633Z,100746.25
2023-01-01T01:02:14.743Z,100742.72
2023-01-01T01:02:46.795Z,100747.22
2023-01-01T01:03:28.307Z,100741.09
2023-01-01T01:04:00.646Z,100744.34
2023-01-01T01:04:32.516Z,100741.97
2023-01-01T01:05:04.879Z,100749.66
2023-01-01T01:05:38.791Z,100743.25
2023-01-01T01:06:15.563Z,100750.38
2023-01-01T01:06:47.518Z,100751.66
2023-01-01T01:07:19.370Z,100753.03
2023-01-01T01:07:51.293Z,100745.94
2023-01-01T01:08:28.631Z,100748.09
2023-01-01T01:09:02.852Z,100749.28
2023-01-01T01:09:34.700Z,100739.31
2023-01-01T01:10:07.226Z,100744.56
2023-01-01T01:10:39.518Z,100734.47
2023-01-01T01:11:17.576Z,100744.66
2023-01-01T01:11:49.480Z,100732.00
2023-01-01T01:12:21.439Z,100735.25
2023-01-01T01:12:53.431Z,100736.03
2023-01-01T01:13:25.268Z,100740.31
2023-01-01T01:13:57.263Z,100731.87
2023-01-01T01:14:29.222Z,100733.44
2023-01-01T01:15:01.413Z,100738.50
2023-01-01T01:15:33.256Z,100734.22
2023-01-01T01:16:29.998Z,100732.06
2023-01-01T01:17:01.928Z,100731.19
2023-01-01T01:17:34.058Z,100726.53
2023-01-01T01:18:05.892Z,100725.97
2023-01-01T01:18:38.053Z,100726.53
2023-01-01T01:19:15.200Z,100729.56
2023-01-01T01:19:47.092Z,100729.81
2023-01-01T01:20:19.045Z,100730.31
2023-01-01T01:20:52.312Z,100727.88
2023-01-01T01:21:25.172Z,100728.97
2023-01-01T01:21:57.019Z,100725.75
2023-01-01T01:22:29.415Z,100732.56
2023-01-01T01:23:01.327Z,100724.72
2023-01-01T01:23:33.949Z,100734.25
2023-01-01T01:24:06.169Z,100733.72
2023-01-01T01:24:38.013Z,100732.22
2023-01-01T01:25:10.308Z,100728.28
2023-01-01T01:25:42.175Z,100733.97
2023-01-01T01:26:22.221Z,100731.25
2023-01-01T01:26:54.446Z,100734.22
2023-01-01T01:27:26.779Z,100732.00
2023-01-01T01:27:58.648Z,100732.28
2023-01-01T01:28:31.124Z,100727.28
2023-01-01T01:29:03.867Z,100724.44
2023-01-01T01:29:35.698Z,100724.25
2023-01-01T01:30:08.204Z,100715.91
2023-01-01T01:30:40.685Z,100724.47
2023-01-01T01:31:12.971Z,100720.66
2023-01-01T01:31:44.845Z,100720.28
2023-01-01T01:32:17.018Z,100723.00
2023-01-01T01:32:48.857Z,100720.84
2023-01-01T01:33:20.698Z,100720.69
2023-01-01T01:33:52.603Z,100723.97
2023-01-01T01:34:28.154Z,100724.34
2023-01-01T01:35:00.413Z,100720.28
2023-01-01T01:35:33.244Z,100731.09
2023-01-01T01:36:06.500Z,100725.78
2023-01-01T01:36:38.377Z,100725.50
2023-01-01T01:37:10.264Z,100729.91
2023-01-01T01:37:42.375Z,100732.63
2023-01-01T01:38:14.801Z,100724.06
2023-01-01T01:38:47.355Z,100724.72
2023-01-01T01:39:19.971Z,100727.22
2023-01-01T01:39:54.029Z,100727.22
2023-01-01T01:40:26.207Z,100730.66
2023-01-01T01:40:58.510Z,100731.31
2023-01-01T01:41:30.375Z,100729.16
2023-01-01T01:42:04.929Z,100731.31
2023-01-01T01:42:36.762Z,100729.69
2023-01-01T01:43:20.955Z,100733.75
2023-01-01T01:44:03.234Z,100736.22
2023-01-01T01:44:47.608Z,100727.78
2023-01-01T01:45:19.571Z,100735.41
2023-01-01T01:46:01.743Z,100727.47
2023-01-01T01:46:41.618Z,100727.09
2023-01-01T01:47:45.574Z,100723.56
2023-01-01T01:48:18.489Z,100727.47
2023-01-01T01:48:52.734Z,100731.63
2023-01-01T01:49:30.236Z,100730.94
2023-01-01T01:50:02.543Z,100731.63
2023-01-01T01:50:41.023Z,100732.31
2023-01-01T01:51:16.803Z,100725.94
2023-01-01T01:51:49.784Z,100730.72
2023-01-01T01:52:22.010Z,100718.19
2023-01-01T01:53:09.295Z,100725.66
2023-01-01T01:53:45.569Z,100729.97
2023-01-01T01:54:22.676Z,100730.25
2023-01-01T01:54:55.534Z,100731.03
2023-01-01T01:55:31.011Z,100733.06
2023-01-01T01:56:09.547Z,100722.31
2023-01-01T01:56:56.866Z,100723.97
2023-01-01T01:57:29.976Z,100726.34
2023-01-01T01:58:03.603Z,100726.22
2023-01-01T01:58:35.768Z,100722.81
2023-01-01T01:59:08.628Z,100725.69
2023-01-01T01:59:45.169Z,100721.16
2023-01-01T02:00:17.107Z,100727.03
2023-01-01T02:00:49.517Z,100725.78
2023-01-01T02:01:21.431Z,100727.03
2023-01-01T02:01:53.975Z,100724.44
2023-01-01T02:02:42.516Z,100720.22
2023-01-01T02:03:24.918Z,100717.41
2023-01-01T02:04:02.071Z,100714.09
2023-01-01T02:04:35.296Z,100717.94
2023-01-01T02:05:07.709Z,100711.94
2023-01-01T02:05:41.379Z,100712.69
2023-01-01T02:06:14.366Z,100714.53
2023-01-01T02:06:47.229Z,100709.62
2023-01-01T02:07:21.397Z,100707.59
2023-01-01T02:07:55.211Z,100720.78
2023-01-01T02:08:28.318Z,100711.94
2023-01-01T02:09:03.423Z,100715.19
2023-01-01T02:09:35.300Z,100714.97
2023-01-01T02:10:07.293Z,100716.28
2023-01-01T02:10:39.151Z,100716.59
2023-01-01T02:11:10.997Z,100717.44
2023-01-01T02:11:43.878Z,100709.56
2023-01-01T02:12:15.822Z,100716.09
2023-01-01T02:12:48.168Z,100716.88
2023-01-01T02:13:20.397Z,100722.06
2023-01-01T02:13:54.648Z,100713.91
2023-01-01T02:14:26.608Z,100718.63
2023-01-01T02:14:58.610Z,100717.12
2023-01-01T02:15:51.224Z,100722.09
2023-01-01T02:16:43.668Z,100717.47
2023-01-01T02:17:35.424Z,100729.97
2023-01-01T02:18:13.750Z,100728.97
2023-01-01T02:18:48.100Z,100719.44
2023-01-01T02:19:38.487Z,100724.03
2023-01-01T02:20:29.392Z,100721.34
2023-01-01T02:21:31.868Z,100724.91
2023-01-01T02:22:24.825Z,100722.97
2023-01-01T02:23:12.852Z,100718.34
2023-01-01T02:24:07.481Z,100723.62
2023-01-01T02:25:00.300Z,100732.97
2023-01-01T02:26:09.634Z,100725.94
2023-01-01T02:26:58.051Z,100735.78
2023-01-01T02:28:08.285Z,100736.03
2023-01-01T02:29:03.359Z,100735.78
2023-01-01T02:30:00.762Z,100733.03
2023-01-01T02:30:36.468Z,100730.31
2023-01-01T02:31:10.251Z,100737.66
2023-01-01T02:32:07.715Z,100731.28
2023-01-01T02:32:51.057Z,100737.00
2023-01-01T02:33:25.818Z,100739.31
2023-01-01T02:34:02.440Z,100736.16
2023-01-01T02:34:41.740Z,100732.50
2023-01-01T02:35:31.837Z,100737.97
2023-01-01T02:36:04.942Z,100734.16
2023-01-01T02:36:44.008Z,100737.38
2023-01-01T02:37:19.989Z,100737.84
2023-01-01T02:37:57.159Z,100741.75
2023-01-01T02:38:30.506Z,100738.47
2023-01-01T02:39:05.268Z,100747.19
2023-01-01T02:39:42.152Z,100739.81
2023-01-01T02:40:14.117Z,100750.44
2023-01-01T02:40:51.382Z,100748.97
2023-01-01T02:41:34.133Z,100754.12
2023-01-01T02:42:07.914Z,100753.97
2023-01-01T02:42:40.084Z,100757.53
2023-01-01T02:43:12.016Z,100761.09
2023-01-01T02:43:45.186Z,100765.16
2023-01-01T02:44:19.790Z,100759.72
2023-01-01T02:44:55.488Z,100758.47
2023-01-01T02:45:28.127Z,100760.38
2023-01-01T02:46:05.406Z,100750.72
2023-01-01T02:46:37.426Z,100755.63
2023-01-01T02:47:12.415Z,100754.81
2023-01-01T02:47:44.278Z,100752.88
2023-01-01T02:48:38.623Z,100756.94
2023-01-01T02:49:11.805Z,100755.84
2023-01-01T02:50:05.346Z,100753.66
2023-01-01T02:50:37.253Z,100753.41
2023-01-01T02:51:46.936Z,100754.66
2023-01-01T02:52:28.994Z,100755.03
2023-01-01T02:53:09.046Z,100758.00
2023-01-01T02:53:58.982Z,100746.19
2023-01-01T02:54:56.838Z,100744.28
2023-01-01T02:55:28.967Z,100757.62
2023-01-01T02:56:26.355Z,100755.81
2023-01-01T02:57:14.753Z,100758.78
2023-01-01T02:57:53.581Z,100751.63
2023-01-01T02:58:59.678Z,100754.88
2023-01-01T03:00:17.430Z,100740.59
2023-01-01T03:00:55.706Z,100752.13
2023-01-01T03:01:48.294Z,100747.94
2023-01-01T03:02:37.941Z,100746.44
2023-01-01T03:03:30.652Z,100739.88
2023-01-01T03:04:22.988Z,100744.53
2023-01-01T03:05:34.474Z,100749.81
2023-01-01T03:06:34.941Z,100742.78
2023-01-01T03:07:18.079Z,100743.50
2023-01-01T03:08:18.136Z,100753.41
2023-01-01T03:09:11.109Z,100744.69
2023-01-01T03:09:51.619Z,100748.47
2023-01-01T03:10:35.640Z,100740.88
2023-01-01T03:11:14.850Z,100748.25
2023-01-01T03:12:17.195Z,100746.91
2023-01-01T03:12:56.809Z,100751.16
2023-01-01T03:13:44.702Z,100739.47
2023-01-01T03:14:41.809Z,100745.44
2023-01-01T03:15:20.261Z,100742.16
2023-01-01T03:16:03.008Z,100737.91
2023-01-01T03:16:43.455Z,100741.13
2023-01-01T03:17:26.861Z,100736.50
2023-01-01T03:18:05.421Z,100729.13
2023-01-01T03:18:43.934Z,100738.47
2023-01-01T03:19:20.242Z,100741.09
2023-01-01T03:19:53.723Z,100736.22
2023-01-01T03:20:31.713Z,100727.94
2023-01-01T03:21:07.295Z,100739.03
2023-01-01T03:21:43.733Z,100730.19
2023-01-01T03:22:19.039Z,100722.84
2023-01-01T03:22:53.179Z,100728.84
2023-01-01T03:23:32.828Z,100734.97
2023-01-01T03:24:06.812Z,100726.97
2023-01-01T03:24:53.743Z,100725.37
2023-01-01T03:25:31.248Z,100725.41
2023-01-01T03:26:08.075Z,100719.56
2023-01-01T03:26:41.738Z,100723.16
2023-01-01T03:27:29.075Z,100729.38
2023-01-01T03:28:07.755Z,100727.56
2023-01-01T03:29:01.621Z,100724.31
2023-01-01T03:29:37.609Z,100720.53
2023-01-01T03:30:13.175Z,100723.38
2023-01-01T03:30:47.719Z,100722.59
2023-01-01T03:31:25.369Z,100726.03
2023-01-01T03:31:59.653Z,100729.94
2023-01-01T03:32:57.949Z,100735.00
2023-01-01T03:33:41.795Z,100732.50
2023-01-01T03:34:20.353Z,100728.19
2023-01-01T03:34:57.174Z,100726.16
2023-01-01T03:35:35.497Z,100731.50
2023-01-01T03:36:12.456Z,100731.19
2023-01-01T03:36:49.446Z,100739.59
2023-01-01T03:37:26.182Z,100735.81
2023-01-01T03:38:00.628Z,100730.41
2023-01-01T03:38:40.789Z,100730.94
2023-01-01T03:39:14.579Z,100739.09
2023-01-01T03:39:52.107Z,100735.41
2023-01-01T03:40:26.026Z,100736.25
2023-01-01T03:41:05.395Z,100727.44
2023-01-01T03:41:44.378Z,100722.28
2023-01-01T03:42:31.501Z,100725.94
2023-01-01T03:43:10.363Z,100720.91
2023-01-01T03:43:53.013Z,100715.63
2023-01-01T03:44:32.957Z,100723.78
2023-01-01T03:45:14.518Z,100714.81
2023-01-01T03:45:49.800Z,100717.34
2023-01-01T03:46:26.319Z,100718.44
2023-01-01T03:46:59.055Z,100717.19
2023-01-01T03:47:31.922Z,100719.50
2023-01-01T03:48:05.326Z,100714.09
2023-01-01T03:49:02.525Z,100720.06
2023-01-01T03:49:35.857Z,100718.69
2023-01-01T03:50:08.330Z,100720.59
2023-01-01T03:50:55.675Z,100729.31
2023-01-01T03:51:42.709Z,100726.59
2023-01-01T03:52:33.927Z,100724.00
2023-01-01T03:53:33.386Z,100721.16
2023-01-01T03:54:23.708Z,100733.38
2023-01-01T03:55:23.397Z,100728.75
2023-01-01T03:56:08.537Z,100719.88
2023-01-01T03:57:02.002Z,100727.91
2023-01-01T03:57:47.020Z,100731.19
2023-01-01T03:58:26.167Z,100727.66
2023-01-01T03:59:09.201Z,100725.34
2023-01-01T04:00:23.120Z,100719.97
2023-01-01T04:01:27.240Z,100727.53
2023-01-01T04:02:04.686Z,100727.81
2023-01-01T04:02:56.896Z,100723.19
2023-01-01T04:03:31.228Z,100736.78
2023-01-01T04:04:05.199Z,100729.59
2023-01-01T04:04:37.833Z,100735.31
2023-01-01T04:05:10.995Z,100733.13
2023-01-01T04:05:43.752Z,100730.69
2023-01-01T04:06:16.120Z,100731.78
2023-01-01T04:06:48.093Z,100738.28
2023-01-01T04:07:20.879Z,100732.72
2023-01-01T04:07:54.728Z,100729.03
2023-01-01T04:08:26.682Z,100727.25
2023-01-01T04:09:00.937Z,100726.31
2023-01-01T04:09:36.001Z,100726.31
2023-01-01T04:10:17.458Z,100724.38
2023-01-01T04:10:55.730Z,100724.44
2023-01-01T04:11:49.832Z,100721.59
2023-01-01T04:12:21.765Z,100725.53
2023-01-01T04:12:57.667Z,100722.25
2023-01-01T04:13:29.530Z,100720.91
2023-01-01T04:14:01.361Z,100731.50
2023-01-01T04:14:41.968Z,100730.12
2023-01-01T04:15:14.222Z,100730.12
2023-01-01T04:15:46.128Z,100727.94
2023-01-01T04:16:18.105Z,100728.53
2023-01-01T04:16:50.250Z,100735.87
2023-01-01T04:17:22.122Z,100723.06
2023-01-01T04:17:54.972Z,100725.47
2023-01-01T04:18:26.804Z,100731.22
2023-01-01T04:18:58.672Z,100730.81
2023-01-01T04:19:30.767Z,100727.44
2023-01-01T04:20:02.622Z,100728.25
2023-01-01T04:20:34.652Z,100723.88
2023-01-01T04:21:06.530Z,100728.78
2023-01-01T04:21:38.378Z,100724.47
2023-01-01T04:22:10.614Z,100725.53
2023-01-01T04:22:42.649Z,100731.22
2023-01-01T04:23:14.591Z,100726.62
2023-01-01T04:23:46.461Z,100727.84
2023-01-01T04:24:18.422Z,100725.66
2023-01-01T04:24:50.438Z,100730.72
2023-01-01T04:25:22.362Z,100729.50
2023-01-01T04:25:54.181Z,100725.66
2023-01-01T04:26:26.439Z,100724.56
2023-01-01T04:26:58.325Z,100720.50
2023-01-01T04:27:30.475Z,100722.78
2023-01-01T04:28:05.383Z,100729.88
2023-01-01T04:28:37.227Z,100730.12
2023-01-01T04:29:09.160Z,100728.25
2023-01-01T04:29:41.835Z,100721.06
2023-01-01T04:30:15.010Z,100722.78
2023-01-01T04:30:46.855Z,100721.97
2023-01-01T04:31:20.163Z,100726.88
2023-01-01T04:31:52.118Z,100722.56
2023-01-01T04:32:24.090Z,100723.38
2023-01-01T04:32:56.494Z,100724.87
2023-01-01T04:33:28.383Z,100716.59
2023-01-01T04:34:00.282Z,100719.81
2023-01-01T04:34:32.134Z,100718.19
2023-01-01T04:35:05.364Z,100724.44
2023-01-01T04:35:37.308Z,100727.56
2023-01-01T04:36:10.173Z,100724.00
2023-01-01T04:36:42.577Z,100723.06
2023-01-01T04:37:14.936Z,100727.53
2023-01-01T04:37:46.815Z,100719.53
2023-01-01T04:38:18.946Z,100726.47
2023-01-01T04:38:50.865Z,100730.94
2023-01-01T04:39:22.742Z,100722.16
2023-01-01T04:39:56.073Z,100723.38
2023-01-01T04:40:27.945Z,100727.72
2023-01-01T04:41:00.978Z,100728.53
2023-01-01T04:41:32.840Z,100730.53
2023-01-01T04:42:04.775Z,100729.75
2023-01-01T04:42:36.887Z,100728.53
2023-01-01T04:43:08.736Z,100728.25
2023-01-01T04:43:40.821Z,100736.09
2023-01-01T04:44:12.638Z,100731.50
2023-01-01T04:44:44.600Z,100731.09
2023-01-01T04:45:16.510Z,100728.53
2023-01-01T04:45:56.871Z,100730.56
2023-01-01T04:46:28.838Z,100734.50
2023-01-01T04:47:00.687Z,100733.16
2023-01-01T04:47:32.799Z,100734.25
2023-01-01T04:48:05.315Z,100726.91
2023-01-01T04:48:37.179Z,100729.09
2023-01-01T04:49:09.314Z,100731.25
2023-01-01T04:49:41.252Z,100729.09
2023-01-01T04:50:13.189Z,100729.09
2023-01-01T04:50:45.050Z,100728.25
2023-01-01T04:51:18.903Z,100729.22
2023-01-01T04:51:50.774Z,100730.44
2023-01-01T04:52:22.757Z,100727.31
2023-01-01T04:52:54.604Z,100731.78
2023-01-01T04:53:29.899Z,100729.09
2023-01-01T04:54:02.325Z,100719.69
2023-01-01T04:54:34.539Z,100729.34
2023-01-01T04:55:06.923Z,100729.50
2023-01-01T04:55:38.837Z,100728.94
2023-01-01T04:56:19.301Z,100731.78
2023-01-01T04:56:51.110Z,100729.34
2023-01-01T04:57:22.971Z,100726.50
2023-01-01T04:57:54.810Z,100725.66
2023-01-01T04:58:26.684Z,100722.28
2023-01-01T04:58:58.662Z,100724.97
2023-01-01T04:59:31.273Z,100727.44
2023-01-01T05:00:04.377Z,100732.44
2023-01-01T05:00:36.619Z,100729.63
2023-01-01T05:01:15.507Z,100725.00
2023-01-01T05:01:47.636Z,100730.31
2023-01-01T05:02:19.763Z,100726.62
2023-01-01T05:02:51.737Z,100726.91
2023-01-01T05:03:23.688Z,100726.62
2023-01-01T05:03:56.731Z,100736.41
2023-01-01T05:04:28.729Z,100730.72
2023-01-01T05:05:00.668Z,100732.47
2023-01-01T05:05:32.780Z,100725.00
2023-01-01T05:06:09.954Z,100727.16
2023-01-01T05:06:42.134Z,100727.72
2023-01-01T05:07:13.975Z,100733.13
2023-01-01T05:07:45.895Z,100731.50
2023-01-01T05:08:17.747Z,100730.31
2023-01-01T05:08:51.187Z,100731.78
2023-01-01T05:09:23.127Z,100727.03
2023-01-01T05:09:54.943Z,100737.09
2023-01-01T05:10:26.779Z,100736.13
2023-01-01T05:11:13.052Z,100735.87
2023-01-01T05:11:45.040Z,100726.34
2023-01-01T05:12:16.999Z,100733.97
2023-01-01T05:12:48.857Z,100734.66
2023-01-01T05:13:20.689Z,100737.09
2023-01-01T05:13:55.366Z,100743.91
2023-01-01T05:14:27.264Z,100737.88
2023-01-01T05:14:59.133Z,100735.31
2023-01-01T05:15:30.956Z,100737.25
2023-01-01T05:16:07.915Z,100731.13
2023-01-01T05:16:40.670Z,100737.38
2023-01-01T05:17:12.590Z,100735.34
2023-01-01T05:17:44.423Z,100729.91
2023-01-01T05:18:16.297Z,100734.78
2023-01-01T05:18:49.655Z,100735.47
2023-01-01T05:19:21.615Z,100730.16
2023-01-01T05:19:53.448Z,100732.59
2023-01-01T05:20:25.695Z,100729.91
2023-01-01T05:21:01.636Z,100729.91
2023-01-01T05:21:36.296Z,100728.94
2023-01-01T05:22:10.849Z,100731.50
2023-01-01T05:22:45.501Z,100730.94
2023-01-01T05:23:18.763Z,100739.09
2023-01-01T05:23:58.939Z,100728.81
2023-01-01T05:24:31.528Z,100733.94
2023-01-01T05:25:03.489Z,100730.69
2023-01-01T05:25:35.358Z,100731.50
2023-01-01T05:26:12.854Z,100725.37
2023-01-01T05:26:45.427Z,100731.09
2023-01-01T05:27:17.358Z,100730.53
2023-01-01T05:27:49.202Z,100726.56
2023-01-01T05:28:21.239Z,100731.22
2023-01-01T05:28:53.141Z,100731.50
2023-01-01T05:29:24.974Z,100725.75
2023-01-01T05:29:56.802Z,100727.41
2023-01-01T05:30:28.622Z,100719.22
2023-01-01T05:31:06.326Z,100728.84
2023-01-01T05:31:38.352Z,100731.19
2023-01-01T05:32:41.188Z,100733.59
2023-01-01T05:33:13.427Z,100731.09
2023-01-01T05:33:45.461Z,100725.94
2023-01-01T05:34:17.348Z,100718.56
2023-01-01T05:34:49.202Z,100722.94
2023-01-01T05:35:26.193Z,100722.13
2023-01-01T05:35:58.508Z,100719.94
2023-01-01T05:36:33.259Z,100725.88
2023-01-01T05:37:05.098Z,100728.84
2023-01-01T05:37:37.253Z,100731.28
2023-01-01T05:38:09.245Z,100726.25
2023-01-01T05:38:41.467Z,100726.69
2023-01-01T05:39:13.407Z,100726.84
2023-01-01T05:39:45.334Z,100727.53
2023-01-01T05:40:17.474Z,100732.25
2023-01-01T05:40:49.336Z,100729.03
2023-01-01T05:41:22.333Z,100728.37
2023-01-01T05:41:54.194Z,100730.84
2023-01-01T05:42:26.023Z,100724.72
2023-01-01T05:42:58.169Z,100729.88
2023-01-01T05:43:30.030Z,100736.28
2023-01-01T05:44:03.196Z,100734.94
2023-01-01T05:44:35.024Z,100741.19
2023-01-01T05:45:07.413Z,100742.78
2023-01-01T05:45:39.268Z,100737.12
2023-01-01T05:46:16.498Z,100744.22
2023-01-01T05:46:48.400Z,100734.28
2023-01-01T05:47:22.320Z,100732.91
2023-01-01T05:47:54.140Z,100738.22
2023-01-01T05:48:26.298Z,100739.06
2023-01-01T05:48:58.120Z,100733.91
2023-01-01T05:49:29.951Z,100735.78
2023-01-01T05:50:33.558Z,100735.50
2023-01-01T05:51:16.187Z,100738.75
2023-01-01T05:51:48.017Z,100737.94
2023-01-01T05:52:26.130Z,100739.97
2023-01-01T05:52:58.520Z,100745.31
2023-01-01T05:53:31.161Z,100749.37
2023-01-01T05:54:03.068Z,100749.09
2023-01-01T05:54:34.912Z,100747.50
2023-01-01T05:55:07.099Z,100741.22
2023-01-01T05:55:38.927Z,100743.41
2023-01-01T05:56:12.077Z,100744.09
2023-01-01T05:56:43.899Z,100742.06
2023-01-01T05:57:15.772Z,100748.03
2023-01-01T05:57:47.622Z,100744.91
2023-01-01T05:58:19.564Z,100748.28
2023-01-01T05:58:51.717Z,100748.28
2023-01-01T05:59:23.569Z,100750.75
2023-01-01T05:59:55.396Z,100747.72
2023-01-01T06:00:28.524Z,100746.38
2023-01-01T06:01:08.022Z,100745.28
2023-01-01T06:01:45.444Z,100750.28
2023-01-01T06:02:17.836Z,100746.91
2023-01-01T06:02:51.564Z,100749.09
2023-01-01T06:03:23.492Z,100755.66
2023-01-01T06:03:58.766Z,100749.91
2023-01-01T06:04:30.759Z,100749.09
2023-01-01T06:05:02.691Z,100762.69
2023-01-01T06:05:35.853Z,100764.06
2023-01-01T06:06:10.104Z,100760.91
2023-01-01T06:06:42.183Z,100759.84
2023-01-01T06:07:14.065Z,100762.03
2023-01-01T06:07:48.555Z,100766.81
2023-01-01T06:08:20.835Z,100759.75
2023-01-01T06:08:58.442Z,100767.59
2023-01-01T06:09:30.281Z,100763.50
2023-01-01T06:10:02.339Z,100766.50
2023-01-01T06:10:34.154Z,100768.84
2023-01-01T06:11:08.101Z,100771.94
2023-01-01T06:11:40.495Z,100772.22
2023-01-01T06:12:12.742Z,100770.06
2023-01-01T06:12:44.594Z,100766.66
2023-01-01T06:13:16.410Z,100770.34
2023-01-01T06:13:48.728Z,100771.12
2023-01-01T06:14:20.576Z,100770.56
2023-01-01T06:14:52.429Z,100766.50
2023-01-01T06:15:24.369Z,100768.69
2023-01-01T06:15:57.313Z,100773.84
2023-01-01T06:16:31.125Z,100776.03
2023-01-01T06:17:03.410Z,100771.56
2023-01-01T06:17:35.298Z,100772.22
2023-01-01T06:18:07.201Z,100769.94
2023-01-01T06:18:39.081Z,100772.22
2023-01-01T06:19:11.009Z,100775.34
2023-01-01T06:19:42.843Z,100772.22
2023-01-01T06:20:14.858Z,100782.56
2023-01-01T06:20:46.687Z,100774.81
2023-01-01T06:21:22.011Z,100780.66
2023-01-01T06:21:53.858Z,100781.06
2023-01-01T06:22:26.012Z,100783.66
2023-01-01T06:22:57.944Z,100780.50
2023-01-01T06:23:29.772Z,100784.03
2023-01-01T06:24:01.775Z,100791.25
2023-01-01T06:24:38.776Z,100785.25
2023-01-01T06:25:12.421Z,100795.59
2023-01-01T06:25:44.650Z,100789.50
2023-01-01T06:26:21.867Z,100797.66
2023-01-01T06:26:54.168Z,100789.44
2023-01-01T06:27:26.348Z,100791.41
2023-01-01T06:27:59.169Z,100796.16
2023-01-01T06:28:31.020Z,100793.69
2023-01-01T06:29:03.168Z,100798.06
2023-01-01T06:29:35.001Z,100798.34
2023-01-01T06:30:07.770Z,100809.91
2023-01-01T06:30:39.698Z,100806.22
2023-01-01T06:31:14.090Z,100799.44
2023-01-01T06:31:46.001Z,100811.13
2023-01-01T06:32:17.825Z,100806.75
2023-01-01T06:32:49.930Z,100812.75
2023-01-01T06:33:21.765Z,100815.34
2023-01-01T06:33:54.012Z,100813.56
2023-01-01T06:34:25.864Z,100816.16
2023-01-01T06:34:57.771Z,100809.63
2023-01-01T06:35:29.684Z,100815.47
2023-01-01T06:36:07.453Z,100821.72
2023-01-01T06:36:39.372Z,100822.12
2023-01-01T06:37:11.228Z,100822.81
2023-01-01T06:37:43.071Z,100829.59
2023-01-01T06:38:15.190Z,100827.19
2023-01-01T06:38:49.872Z,100824.31
2023-01-01T06:39:21.721Z,100826.63
2023-01-01T06:39:53.554Z,100830.16
2023-01-01T06:40:25.493Z,100825.97
2023-01-01T06:41:08.455Z,100827.31
2023-01-01T06:41:40.284Z,100822.28
2023-01-01T06:42:12.136Z,100822.69
2023-01-01T06:42:44.849Z,100821.75
2023-01-01T06:43:16.967Z,100833.97
2023-01-01T06:43:49.315Z,100827.44
2023-01-01T06:44:21.157Z,100823.66
2023-01-01T06:44:52.975Z,100822.41
2023-01-01T06:45:24.815Z,100822.69
2023-01-01T06:46:19.628Z,100823.37
2023-01-01T06:46:51.510Z,100826.09
2023-01-01T06:47:23.322Z,100821.72